sensor_id;sensor_type;location;lat;lon;timestamp;temperature;humidity
14737;DHT22;7459;53.590;10.062;2022-08-11T00:01:23;20.50;99.90
14737;DHT22;7459;53.590;10.062;2022-08-11T00:03:55;20.40;99.90
14737;DHT22;7459;53.590;10.062;2022-08-11T00:06:34;20.40;99.90
14737;DHT22;7459;53.590;10.062;2022-08-11T00:09:05;20.40;99.90
14737;DHT22;7459;53.590;10.062;2022-08-11T00:11:35;20.40;99.90
14737;DHT22;7459;53.590;10.062;2022-08-11T00:14:20;20.30;99.90
14737;DHT22;7459;53.590;10.062;2022-08-11T00:17:02;20.30;99.90
14737;DHT22;7459;53.590;10.062;2022-08-11T00:19:35;20.20;99.90
14737;DHT22;7459;53.590;10.062;2022-08-11T00:22:03;20.20;99.90
14737;DHT22;7459;53.590;10.062;2022-08-11T00:24:35;20.20;99.90
14737;DHT22;7459;53.590;10.062;2022-08-11T00:27:03;20.20;99.90
14737;DHT22;7459;53.590;10.062;2022-08-11T00:29:30;20.10;99.90
14737;DHT22;7459;53.590;10.062;2022-08-11T00:32:00;20.10;99.90
14737;DHT22;7459;53.590;10.062;2022-08-11T00:34:30;20.10;99.90
14737;DHT22;7459;53.590;10.062;2022-08-11T00:37:02;20.10;99.90
14737;DHT22;7459;53.590;10.062;2022-08-11T00:39:31;20.10;99.90
14737;DHT22;7459;53.590;10.062;2022-08-11T00:45:13;20.00;99.90
14737;DHT22;7459;53.590;10.062;2022-08-11T00:51:31;19.90;99.90
14737;DHT22;7459;53.590;10.062;2022-08-11T01:00:16;19.70;99.90
14737;DHT22;7459;53.590;10.062;2022-08-11T01:03:06;19.70;99.90
14737;DHT22;7459;53.590;10.062;2022-08-11T01:09:08;19.60;99.90
14737;DHT22;7459;53.590;10.062;2022-08-11T01:14:58;19.60;99.90
14737;DHT22;7459;53.590;10.062;2022-08-11T01:18:15;19.60;99.90
14737;DHT22;7459;53.590;10.062;2022-08-11T01:29:32;19.50;99.90
14737;DHT22;7459;53.590;10.062;2022-08-11T01:33:03;19.40;99.90
14737;DHT22;7459;53.590;10.062;2022-08-11T01:48:13;19.30;99.90
14737;DHT22;7459;53.590;10.062;2022-08-11T01:51:00;19.30;99.90
14737;DHT22;7459;53.590;10.062;2022-08-11T01:53:52;19.30;99.90
14737;DHT22;7459;53.590;10.062;2022-08-11T02:02:21;19.30;99.90
14737;DHT22;7459;53.590;10.062;2022-08-11T02:05:16;19.30;99.90
14737;DHT22;7459;53.590;10.062;2022-08-11T02:07:55;19.20;99.90
14737;DHT22;7459;53.590;10.062;2022-08-11T02:10:34;19.30;99.90
14737;DHT22;7459;53.590;10.062;2022-08-11T02:13:47;19.20;99.90
14737;DHT22;7459;53.590;10.062;2022-08-11T02:16:46;19.20;99.90
14737;DHT22;7459;53.590;10.062;2022-08-11T02:22:48;19.20;99.90
14737;DHT22;7459;53.590;10.062;2022-08-11T02:25:54;19.10;99.90
14737;DHT22;7459;53.590;10.062;2022-08-11T02:34:33;19.10;99.90
14737;DHT22;7459;53.590;10.062;2022-08-11T02:37:16;19.10;99.90
14737;DHT22;7459;53.590;10.062;2022-08-11T02:42:41;19.10;99.90
14737;DHT22;7459;53.590;10.062;2022-08-11T02:52:09;19.10;99.90
14737;DHT22;7459;53.590;10.062;2022-08-11T03:01:59;19.00;99.90
14737;DHT22;7459;53.590;10.062;2022-08-11T03:10:31;18.90;99.90
14737;DHT22;7459;53.590;10.062;2022-08-11T03:13:17;18.90;99.90
14737;DHT22;7459;53.590;10.062;2022-08-11T03:16:22;18.90;99.90
14737;DHT22;7459;53.590;10.062;2022-08-11T03:22:35;18.80;99.90
14737;DHT22;7459;53.590;10.062;2022-08-11T03:25:11;18.80;99.90
14737;DHT22;7459;53.590;10.062;2022-08-11T03:27:58;18.80;99.90
14737;DHT22;7459;53.590;10.062;2022-08-11T03:30:45;18.80;99.90
14737;DHT22;7459;53.590;10.062;2022-08-11T03:33:18;18.80;99.90
14737;DHT22;7459;53.590;10.062;2022-08-11T03:36:49;18.70;99.90
14737;DHT22;7459;53.590;10.062;2022-08-11T03:39:21;18.70;99.90
14737;DHT22;7459;53.590;10.062;2022-08-11T03:44:49;18.70;99.90
14737;DHT22;7459;53.590;10.062;2022-08-11T04:03:11;18.60;99.90
14737;DHT22;7459;53.590;10.062;2022-08-11T04:06:36;18.60;99.90
14737;DHT22;7459;53.590;10.062;2022-08-11T04:19:16;18.50;99.90
14737;DHT22;7459;53.590;10.062;2022-08-11T04:22:26;18.50;99.90
14737;DHT22;7459;53.590;10.062;2022-08-11T04:30:27;18.50;99.90
14737;DHT22;7459;53.590;10.062;2022-08-11T04:39:26;18.50;99.90
14737;DHT22;7459;53.590;10.062;2022-08-11T04:42:46;18.50;99.90
14737;DHT22;7459;53.590;10.062;2022-08-11T04:46:19;18.60;99.90
14737;DHT22;7459;53.590;10.062;2022-08-11T04:49:17;18.60;99.90
14737;DHT22;7459;53.590;10.062;2022-08-11T04:56:01;18.60;99.90
14737;DHT22;7459;53.590;10.062;2022-08-11T05:02:28;18.70;99.90
14737;DHT22;7459;53.590;10.062;2022-08-11T05:05:44;18.80;99.90
14737;DHT22;7459;53.590;10.062;2022-08-11T05:08:47;18.90;99.90
14737;DHT22;7459;53.590;10.062;2022-08-11T05:11:47;18.90;99.90
14737;DHT22;7459;53.590;10.062;2022-08-11T05:14:33;19.00;99.90
14737;DHT22;7459;53.590;10.062;2022-08-11T05:17:26;19.00;99.90
14737;DHT22;7459;53.590;10.062;2022-08-11T05:20:16;19.00;99.90
14737;DHT22;7459;53.590;10.062;2022-08-11T05:23:12;19.10;99.90
14737;DHT22;7459;53.590;10.062;2022-08-11T05:25:59;19.20;99.90
14737;DHT22;7459;53.590;10.062;2022-08-11T05:29:00;19.20;99.90
14737;DHT22;7459;53.590;10.062;2022-08-11T05:31:49;19.20;99.90
14737;DHT22;7459;53.590;10.062;2022-08-11T05:34:42;19.30;99.90
14737;DHT22;7459;53.590;10.062;2022-08-11T05:40:10;19.40;99.90
14737;DHT22;7459;53.590;10.062;2022-08-11T05:43:00;19.40;99.90
14737;DHT22;7459;53.590;10.062;2022-08-11T05:46:00;19.50;99.90
14737;DHT22;7459;53.590;10.062;2022-08-11T05:48:46;19.60;99.90
14737;DHT22;7459;53.590;10.062;2022-08-11T05:51:42;19.60;99.90
14737;DHT22;7459;53.590;10.062;2022-08-11T05:54:27;19.70;99.90
14737;DHT22;7459;53.590;10.062;2022-08-11T05:57:26;19.70;99.90
14737;DHT22;7459;53.590;10.062;2022-08-11T06:00:03;19.80;99.90
14737;DHT22;7459;53.590;10.062;2022-08-11T06:02:42;19.90;99.90
14737;DHT22;7459;53.590;10.062;2022-08-11T06:05:09;19.90;99.90
14737;DHT22;7459;53.590;10.062;2022-08-11T06:07:36;20.00;99.90
14737;DHT22;7459;53.590;10.062;2022-08-11T06:10:03;20.00;99.90
14737;DHT22;7459;53.590;10.062;2022-08-11T06:12:31;20.10;99.90
14737;DHT22;7459;53.590;10.062;2022-08-11T06:15:05;20.10;99.90
14737;DHT22;7459;53.590;10.062;2022-08-11T06:17:35;20.20;99.90
14737;DHT22;7459;53.590;10.062;2022-08-11T06:20:10;20.20;99.90
14737;DHT22;7459;53.590;10.062;2022-08-11T06:22:38;20.30;99.90
14737;DHT22;7459;53.590;10.062;2022-08-11T06:25:08;20.40;99.90
14737;DHT22;7459;53.590;10.062;2022-08-11T06:27:36;20.40;99.90
14737;DHT22;7459;53.590;10.062;2022-08-11T06:30:05;20.50;99.90
14737;DHT22;7459;53.590;10.062;2022-08-11T06:32:43;20.50;99.90
14737;DHT22;7459;53.590;10.062;2022-08-11T06:35:26;20.60;99.90
14737;DHT22;7459;53.590;10.062;2022-08-11T06:38:15;20.70;99.90
14737;DHT22;7459;53.590;10.062;2022-08-11T06:41:20;20.70;99.90
14737;DHT22;7459;53.590;10.062;2022-08-11T06:46:49;20.80;99.90
14737;DHT22;7459;53.590;10.062;2022-08-11T06:49:17;20.80;99.90
14737;DHT22;7459;53.590;10.062;2022-08-11T06:52:17;20.90;99.90
14737;DHT22;7459;53.590;10.062;2022-08-11T06:54:49;20.90;99.90
14737;DHT22;7459;53.590;10.062;2022-08-11T06:57:19;21.00;99.90
14737;DHT22;7459;53.590;10.062;2022-08-11T07:00:04;21.10;99.90
14737;DHT22;7459;53.590;10.062;2022-08-11T07:03:07;21.10;99.90
14737;DHT22;7459;53.590;10.062;2022-08-11T07:15:02;21.40;99.90
14737;DHT22;7459;53.590;10.062;2022-08-11T07:17:52;21.50;99.90
14737;DHT22;7459;53.590;10.062;2022-08-11T07:20:40;21.50;99.90
14737;DHT22;7459;53.590;10.062;2022-08-11T07:23:25;21.60;99.90
14737;DHT22;7459;53.590;10.062;2022-08-11T07:26:12;21.70;99.90
14737;DHT22;7459;53.590;10.062;2022-08-11T07:28:58;21.70;99.90
14737;DHT22;7459;53.590;10.062;2022-08-11T07:31:37;21.80;99.90
14737;DHT22;7459;53.590;10.062;2022-08-11T07:34:31;21.90;99.90
14737;DHT22;7459;53.590;10.062;2022-08-11T07:37:03;21.90;99.90
14737;DHT22;7459;53.590;10.062;2022-08-11T07:39:35;22.00;99.90
14737;DHT22;7459;53.590;10.062;2022-08-11T07:42:07;22.00;99.90
14737;DHT22;7459;53.590;10.062;2022-08-11T07:44:35;22.10;99.90
14737;DHT22;7459;53.590;10.062;2022-08-11T07:47:21;22.20;99.90
14737;DHT22;7459;53.590;10.062;2022-08-11T07:50:08;22.20;99.90
14737;DHT22;7459;53.590;10.062;2022-08-11T07:52:52;22.30;99.90
14737;DHT22;7459;53.590;10.062;2022-08-11T07:55:21;22.40;99.90
14737;DHT22;7459;53.590;10.062;2022-08-11T07:57:50;22.40;99.90
14737;DHT22;7459;53.590;10.062;2022-08-11T08:00:41;22.50;99.90
14737;DHT22;7459;53.590;10.062;2022-08-11T08:03:28;22.50;99.90
14737;DHT22;7459;53.590;10.062;2022-08-11T08:06:15;22.60;99.90
14737;DHT22;7459;53.590;10.062;2022-08-11T08:09:00;22.70;99.90
14737;DHT22;7459;53.590;10.062;2022-08-11T08:11:46;22.70;99.90
14737;DHT22;7459;53.590;10.062;2022-08-11T08:14:30;22.70;99.90
14737;DHT22;7459;53.590;10.062;2022-08-11T08:17:15;22.70;99.90
14737;DHT22;7459;53.590;10.062;2022-08-11T08:20:00;22.80;99.90
14737;DHT22;7459;53.590;10.062;2022-08-11T08:22:28;22.80;99.90
14737;DHT22;7459;53.590;10.062;2022-08-11T08:24:55;22.80;99.90
14737;DHT22;7459;53.590;10.062;2022-08-11T08:27:21;22.90;99.90
14737;DHT22;7459;53.590;10.062;2022-08-11T08:29:50;22.90;99.90
14737;DHT22;7459;53.590;10.062;2022-08-11T08:32:40;23.10;99.90
14737;DHT22;7459;53.590;10.062;2022-08-11T08:35:08;23.20;99.90
14737;DHT22;7459;53.590;10.062;2022-08-11T08:37:35;23.20;99.90
14737;DHT22;7459;53.590;10.062;2022-08-11T08:40:02;23.30;99.90
14737;DHT22;7459;53.590;10.062;2022-08-11T08:42:30;23.30;99.90
14737;DHT22;7459;53.590;10.062;2022-08-11T08:45:03;23.40;99.90
14737;DHT22;7459;53.590;10.062;2022-08-11T08:47:34;23.50;99.90
14737;DHT22;7459;53.590;10.062;2022-08-11T08:50:04;23.50;99.90
14737;DHT22;7459;53.590;10.062;2022-08-11T08:52:36;23.60;99.90
14737;DHT22;7459;53.590;10.062;2022-08-11T08:55:07;23.60;99.90
14737;DHT22;7459;53.590;10.062;2022-08-11T08:57:35;23.60;99.90
14737;DHT22;7459;53.590;10.062;2022-08-11T09:00:04;23.70;99.90
14737;DHT22;7459;53.590;10.062;2022-08-11T09:02:31;23.70;99.90
14737;DHT22;7459;53.590;10.062;2022-08-11T09:04:58;23.70;99.90
14737;DHT22;7459;53.590;10.062;2022-08-11T09:07:24;23.70;99.90
14737;DHT22;7459;53.590;10.062;2022-08-11T09:09:53;23.80;99.90
14737;DHT22;7459;53.590;10.062;2022-08-11T09:12:26;23.90;99.90
14737;DHT22;7459;53.590;10.062;2022-08-11T09:14:53;23.90;99.90
14737;DHT22;7459;53.590;10.062;2022-08-11T09:17:48;23.90;99.90
14737;DHT22;7459;53.590;10.062;2022-08-11T09:20:24;24.00;99.90
14737;DHT22;7459;53.590;10.062;2022-08-11T09:22:55;24.00;99.90
14737;DHT22;7459;53.590;10.062;2022-08-11T09:25:40;24.00;99.90
14737;DHT22;7459;53.590;10.062;2022-08-11T09:28:27;24.00;99.90
14737;DHT22;7459;53.590;10.062;2022-08-11T09:30:57;24.10;99.90
14737;DHT22;7459;53.590;10.062;2022-08-11T09:33:27;24.10;99.90
14737;DHT22;7459;53.590;10.062;2022-08-11T09:35:53;24.10;99.90
14737;DHT22;7459;53.590;10.062;2022-08-11T09:38:22;24.20;99.90
14737;DHT22;7459;53.590;10.062;2022-08-11T09:41:08;24.30;99.90
14737;DHT22;7459;53.590;10.062;2022-08-11T09:43:44;24.30;99.90
14737;DHT22;7459;53.590;10.062;2022-08-11T09:46:30;24.40;99.90
14737;DHT22;7459;53.590;10.062;2022-08-11T09:48:59;24.40;99.90
14737;DHT22;7459;53.590;10.062;2022-08-11T09:51:29;24.50;99.90
14737;DHT22;7459;53.590;10.062;2022-08-11T09:53:58;24.50;99.00
14737;DHT22;7459;53.590;10.062;2022-08-11T09:56:25;24.60;99.00
14737;DHT22;7459;53.590;10.062;2022-08-11T09:59:12;24.60;99.50
14737;DHT22;7459;53.590;10.062;2022-08-11T10:01:49;24.60;99.60
14737;DHT22;7459;53.590;10.062;2022-08-11T10:04:34;24.60;99.70
14737;DHT22;7459;53.590;10.062;2022-08-11T10:07:05;24.60;99.00
14737;DHT22;7459;53.590;10.062;2022-08-11T10:10:00;24.60;99.00
14737;DHT22;7459;53.590;10.062;2022-08-11T10:12:40;24.60;99.20
14737;DHT22;7459;53.590;10.062;2022-08-11T10:15:08;24.70;98.70
14737;DHT22;7459;53.590;10.062;2022-08-11T10:17:57;24.70;98.80
14737;DHT22;7459;53.590;10.062;2022-08-11T10:21:02;24.70;98.80
14737;DHT22;7459;53.590;10.062;2022-08-11T10:23:32;24.70;98.90
14737;DHT22;7459;53.590;10.062;2022-08-11T10:26:18;24.80;98.10
14737;DHT22;7459;53.590;10.062;2022-08-11T10:29:05;24.80;99.00
14737;DHT22;7459;53.590;10.062;2022-08-11T10:31:53;24.90;97.90
14737;DHT22;7459;53.590;10.062;2022-08-11T10:34:39;24.90;97.80
14737;DHT22;7459;53.590;10.062;2022-08-11T10:37:06;24.90;97.80
14737;DHT22;7459;53.590;10.062;2022-08-11T10:39:33;24.90;98.30
14737;DHT22;7459;53.590;10.062;2022-08-11T10:42:00;24.90;98.50
14737;DHT22;7459;53.590;10.062;2022-08-11T10:44:50;25.00;98.80
14737;DHT22;7459;53.590;10.062;2022-08-11T10:47:17;25.10;99.20
14737;DHT22;7459;53.590;10.062;2022-08-11T10:50:11;25.10;98.90
14737;DHT22;7459;53.590;10.062;2022-08-11T10:52:58;25.10;98.40
14737;DHT22;7459;53.590;10.062;2022-08-11T10:55:44;25.20;97.70
14737;DHT22;7459;53.590;10.062;2022-08-11T10:58:30;25.30;97.60
14737;DHT22;7459;53.590;10.062;2022-08-11T11:01:27;25.30;97.70
14737;DHT22;7459;53.590;10.062;2022-08-11T11:04:22;25.40;97.40
14737;DHT22;7459;53.590;10.062;2022-08-11T11:06:58;25.50;96.60
14737;DHT22;7459;53.590;10.062;2022-08-11T11:09:54;25.50;96.40
14737;DHT22;7459;53.590;10.062;2022-08-11T11:12:29;25.50;97.10
14737;DHT22;7459;53.590;10.062;2022-08-11T11:15:16;25.60;96.90
14737;DHT22;7459;53.590;10.062;2022-08-11T11:18:09;25.60;96.90
14737;DHT22;7459;53.590;10.062;2022-08-11T11:20:46;25.70;97.20
14737;DHT22;7459;53.590;10.062;2022-08-11T11:26:46;25.80;96.00
14737;DHT22;7459;53.590;10.062;2022-08-11T11:35:29;26.00;96.20
14737;DHT22;7459;53.590;10.062;2022-08-11T11:38:26;26.10;95.90
14737;DHT22;7459;53.590;10.062;2022-08-11T11:40:53;26.20;95.30
14737;DHT22;7459;53.590;10.062;2022-08-11T11:43:37;26.20;95.10
14737;DHT22;7459;53.590;10.062;2022-08-11T11:46:04;26.20;95.00
14737;DHT22;7459;53.590;10.062;2022-08-11T11:48:31;26.30;95.40
14737;DHT22;7459;53.590;10.062;2022-08-11T11:50:59;26.40;95.90
14737;DHT22;7459;53.590;10.062;2022-08-11T11:53:25;26.40;95.20
14737;DHT22;7459;53.590;10.062;2022-08-11T11:55:51;26.50;94.40
14737;DHT22;7459;53.590;10.062;2022-08-11T11:58:17;26.60;94.60
14737;DHT22;7459;53.590;10.062;2022-08-11T12:01:02;26.70;94.80
14737;DHT22;7459;53.590;10.062;2022-08-11T12:03:50;26.80;94.20
14737;DHT22;7459;53.590;10.062;2022-08-11T12:06:22;26.90;93.80
14737;DHT22;7459;53.590;10.062;2022-08-11T12:08:51;26.90;94.30
14737;DHT22;7459;53.590;10.062;2022-08-11T12:11:21;27.00;94.40
14737;DHT22;7459;53.590;10.062;2022-08-11T12:14:08;27.00;93.70
14737;DHT22;7459;53.590;10.062;2022-08-11T12:16:36;27.10;93.80
14737;DHT22;7459;53.590;10.062;2022-08-11T12:19:17;27.20;93.90
14737;DHT22;7459;53.590;10.062;2022-08-11T12:21:46;27.30;93.80
14737;DHT22;7459;53.590;10.062;2022-08-11T12:24:31;27.40;93.60
14737;DHT22;7459;53.590;10.062;2022-08-11T12:27:17;27.40;94.10
14737;DHT22;7459;53.590;10.062;2022-08-11T12:29:51;27.50;93.50
14737;DHT22;7459;53.590;10.062;2022-08-11T12:32:21;27.60;93.50
14737;DHT22;7459;53.590;10.062;2022-08-11T12:34:50;27.60;93.30
14737;DHT22;7459;53.590;10.062;2022-08-11T12:37:20;27.70;93.30
14737;DHT22;7459;53.590;10.062;2022-08-11T12:39:50;27.80;92.80
14737;DHT22;7459;53.590;10.062;2022-08-11T12:42:37;27.80;92.00
14737;DHT22;7459;53.590;10.062;2022-08-11T12:45:25;27.80;92.40
14737;DHT22;7459;53.590;10.062;2022-08-11T12:51:00;28.00;92.20
14737;DHT22;7459;53.590;10.062;2022-08-11T12:53:54;28.10;91.80
14737;DHT22;7459;53.590;10.062;2022-08-11T12:56:23;28.20;91.50
14737;DHT22;7459;53.590;10.062;2022-08-11T12:59:14;28.20;91.30
14737;DHT22;7459;53.590;10.062;2022-08-11T13:01:59;28.20;91.30
14737;DHT22;7459;53.590;10.062;2022-08-11T13:04:44;28.30;91.30
14737;DHT22;7459;53.590;10.062;2022-08-11T13:07:25;28.30;91.10
14737;DHT22;7459;53.590;10.062;2022-08-11T13:09:52;28.40;90.90
14737;DHT22;7459;53.590;10.062;2022-08-11T13:12:23;28.40;91.10
14737;DHT22;7459;53.590;10.062;2022-08-11T13:15:10;28.40;91.50
14737;DHT22;7459;53.590;10.062;2022-08-11T13:17:42;28.50;91.80
14737;DHT22;7459;53.590;10.062;2022-08-11T13:20:10;28.60;91.50
14737;DHT22;7459;53.590;10.062;2022-08-11T13:22:38;28.70;91.60
14737;DHT22;7459;53.590;10.062;2022-08-11T13:25:08;28.70;91.40
14737;DHT22;7459;53.590;10.062;2022-08-11T13:27:34;28.80;91.30
14737;DHT22;7459;53.590;10.062;2022-08-11T13:30:00;28.80;91.10
14737;DHT22;7459;53.590;10.062;2022-08-11T13:32:45;28.80;91.00
14737;DHT22;7459;53.590;10.062;2022-08-11T13:35:12;28.80;90.80
14737;DHT22;7459;53.590;10.062;2022-08-11T13:37:41;28.80;90.30
14737;DHT22;7459;53.590;10.062;2022-08-11T13:40:10;28.80;90.60
14737;DHT22;7459;53.590;10.062;2022-08-11T13:42:37;28.80;90.60
14737;DHT22;7459;53.590;10.062;2022-08-11T13:45:05;28.80;90.60
14737;DHT22;7459;53.590;10.062;2022-08-11T13:47:33;28.90;90.60
14737;DHT22;7459;53.590;10.062;2022-08-11T13:50:00;28.90;90.50
14737;DHT22;7459;53.590;10.062;2022-08-11T13:52:26;28.90;90.70
14737;DHT22;7459;53.590;10.062;2022-08-11T13:54:53;28.90;90.70
14737;DHT22;7459;53.590;10.062;2022-08-11T13:57:20;28.80;90.50
14737;DHT22;7459;53.590;10.062;2022-08-11T13:59:51;28.80;90.30
14737;DHT22;7459;53.590;10.062;2022-08-11T14:02:23;28.80;90.50
14737;DHT22;7459;53.590;10.062;2022-08-11T14:04:56;28.80;90.30
14737;DHT22;7459;53.590;10.062;2022-08-11T14:07:31;28.90;90.10
14737;DHT22;7459;53.590;10.062;2022-08-11T14:10:00;28.80;90.40
14737;DHT22;7459;53.590;10.062;2022-08-11T14:12:33;28.90;90.40
14737;DHT22;7459;53.590;10.062;2022-08-11T14:15:27;28.90;90.00
14737;DHT22;7459;53.590;10.062;2022-08-11T14:18:03;28.90;89.20
14737;DHT22;7459;53.590;10.062;2022-08-11T14:20:33;28.90;89.40
14737;DHT22;7459;53.590;10.062;2022-08-11T14:23:25;29.10;89.00
14737;DHT22;7459;53.590;10.062;2022-08-11T14:25:53;30.20;88.00
14737;DHT22;7459;53.590;10.062;2022-08-11T14:28:38;31.10;86.10
14737;DHT22;7459;53.590;10.062;2022-08-11T14:31:05;31.60;85.60
14737;DHT22;7459;53.590;10.062;2022-08-11T14:33:33;33.50;84.10
14737;DHT22;7459;53.590;10.062;2022-08-11T14:36:02;34.20;81.00
14737;DHT22;7459;53.590;10.062;2022-08-11T14:38:34;33.50;80.80
14737;DHT22;7459;53.590;10.062;2022-08-11T14:41:01;33.30;80.70
14737;DHT22;7459;53.590;10.062;2022-08-11T14:43:46;33.70;80.80
14737;DHT22;7459;53.590;10.062;2022-08-11T14:46:32;33.50;80.00
14737;DHT22;7459;53.590;10.062;2022-08-11T14:49:17;32.70;79.30
14737;DHT22;7459;53.590;10.062;2022-08-11T14:51:45;33.30;80.20
14737;DHT22;7459;53.590;10.062;2022-08-11T14:54:13;34.70;79.20
14737;DHT22;7459;53.590;10.062;2022-08-11T14:56:58;35.10;77.50
14737;DHT22;7459;53.590;10.062;2022-08-11T14:59:25;35.80;76.30
14737;DHT22;7459;53.590;10.062;2022-08-11T15:01:51;35.60;75.80
14737;DHT22;7459;53.590;10.062;2022-08-11T15:04:35;34.90;75.40
14737;DHT22;7459;53.590;10.062;2022-08-11T15:07:03;34.60;76.70
14737;DHT22;7459;53.590;10.062;2022-08-11T15:09:29;34.30;77.90
14737;DHT22;7459;53.590;10.062;2022-08-11T15:11:56;34.40;78.30
14737;DHT22;7459;53.590;10.062;2022-08-11T15:14:34;33.60;79.10
14737;DHT22;7459;53.590;10.062;2022-08-11T15:17:20;33.20;80.30
14737;DHT22;7459;53.590;10.062;2022-08-11T15:19:48;32.60;80.40
14737;DHT22;7459;53.590;10.062;2022-08-11T15:22:33;31.80;81.70
14737;DHT22;7459;53.590;10.062;2022-08-11T15:25:18;31.60;81.30
14737;DHT22;7459;53.590;10.062;2022-08-11T15:27:47;31.40;82.40
14737;DHT22;7459;53.590;10.062;2022-08-11T15:30:32;31.10;83.10
14737;DHT22;7459;53.590;10.062;2022-08-11T15:33:18;31.00;83.10
14737;DHT22;7459;53.590;10.062;2022-08-11T15:36:06;31.20;82.80
14737;DHT22;7459;53.590;10.062;2022-08-11T15:39:12;31.20;83.00
14737;DHT22;7459;53.590;10.062;2022-08-11T15:41:46;31.50;84.60
14737;DHT22;7459;53.590;10.062;2022-08-11T15:44:36;32.50;82.70
14737;DHT22;7459;53.590;10.062;2022-08-11T15:47:26;31.90;82.50
14737;DHT22;7459;53.590;10.062;2022-08-11T15:49:57;31.40;82.40
14737;DHT22;7459;53.590;10.062;2022-08-11T15:52:28;31.10;82.40
14737;DHT22;7459;53.590;10.062;2022-08-11T15:54:58;30.80;82.60
14737;DHT22;7459;53.590;10.062;2022-08-11T15:57:28;30.80;82.60
14737;DHT22;7459;53.590;10.062;2022-08-11T16:00:14;31.00;82.40
14737;DHT22;7459;53.590;10.062;2022-08-11T16:02:59;31.20;82.60
14737;DHT22;7459;53.590;10.062;2022-08-11T16:05:45;31.40;82.60
14737;DHT22;7459;53.590;10.062;2022-08-11T16:08:14;31.30;82.00
14737;DHT22;7459;53.590;10.062;2022-08-11T16:10:41;31.00;83.40
14737;DHT22;7459;53.590;10.062;2022-08-11T16:13:09;30.60;84.00
14737;DHT22;7459;53.590;10.062;2022-08-11T16:15:41;30.30;85.10
14737;DHT22;7459;53.590;10.062;2022-08-11T16:18:59;30.00;84.20
14737;DHT22;7459;53.590;10.062;2022-08-11T16:21:31;29.80;85.50
14737;DHT22;7459;53.590;10.062;2022-08-11T16:23:59;29.60;84.70
14737;DHT22;7459;53.590;10.062;2022-08-11T16:26:26;29.50;85.00
14737;DHT22;7459;53.590;10.062;2022-08-11T16:28:56;29.40;85.30
14737;DHT22;7459;53.590;10.062;2022-08-11T16:31:25;29.30;86.10
14737;DHT22;7459;53.590;10.062;2022-08-11T16:33:53;29.40;85.80
14737;DHT22;7459;53.590;10.062;2022-08-11T16:36:23;29.40;85.60
14737;DHT22;7459;53.590;10.062;2022-08-11T16:39:10;29.30;85.50
14737;DHT22;7459;53.590;10.062;2022-08-11T16:41:39;29.30;86.70
14737;DHT22;7459;53.590;10.062;2022-08-11T16:44:24;29.10;86.60
14737;DHT22;7459;53.590;10.062;2022-08-11T16:47:13;29.00;85.80
14737;DHT22;7459;53.590;10.062;2022-08-11T16:49:49;28.90;85.80
14737;DHT22;7459;53.590;10.062;2022-08-11T16:52:17;28.80;85.70
14737;DHT22;7459;53.590;10.062;2022-08-11T16:54:44;28.80;86.10
14737;DHT22;7459;53.590;10.062;2022-08-11T16:57:15;28.70;86.50
14737;DHT22;7459;53.590;10.062;2022-08-11T17:00:06;28.50;87.10
14737;DHT22;7459;53.590;10.062;2022-08-11T17:02:40;28.40;86.70
14737;DHT22;7459;53.590;10.062;2022-08-11T17:05:30;28.30;87.30
14737;DHT22;7459;53.590;10.062;2022-08-11T17:08:17;28.20;87.90
14737;DHT22;7459;53.590;10.062;2022-08-11T17:11:04;28.10;87.90
14737;DHT22;7459;53.590;10.062;2022-08-11T17:14:02;27.90;88.40
14737;DHT22;7459;53.590;10.062;2022-08-11T17:16:34;27.80;88.50
14737;DHT22;7459;53.590;10.062;2022-08-11T17:19:08;27.70;88.30
14737;DHT22;7459;53.590;10.062;2022-08-11T17:21:39;27.60;88.00
14737;DHT22;7459;53.590;10.062;2022-08-11T17:24:28;27.60;87.70
14737;DHT22;7459;53.590;10.062;2022-08-11T17:26:56;27.50;87.60
14737;DHT22;7459;53.590;10.062;2022-08-11T17:29:29;27.40;87.80
14737;DHT22;7459;53.590;10.062;2022-08-11T17:32:00;27.40;87.50
14737;DHT22;7459;53.590;10.062;2022-08-11T17:34:48;27.30;88.60
14737;DHT22;7459;53.590;10.062;2022-08-11T17:37:35;27.20;88.60
14737;DHT22;7459;53.590;10.062;2022-08-11T17:40:05;27.10;88.40
14737;DHT22;7459;53.590;10.062;2022-08-11T17:42:33;27.10;88.50
14737;DHT22;7459;53.590;10.062;2022-08-11T17:45:19;27.00;88.70
14737;DHT22;7459;53.590;10.062;2022-08-11T17:48:05;27.00;87.60
14737;DHT22;7459;53.590;10.062;2022-08-11T17:50:52;27.00;87.10
14737;DHT22;7459;53.590;10.062;2022-08-11T17:53:20;26.90;86.70
14737;DHT22;7459;53.590;10.062;2022-08-11T17:56:06;26.90;86.40
14737;DHT22;7459;53.590;10.062;2022-08-11T17:58:53;26.80;86.00
14737;DHT22;7459;53.590;10.062;2022-08-11T18:01:38;26.80;85.90
14737;DHT22;7459;53.590;10.062;2022-08-11T18:04:08;26.80;85.80
14737;DHT22;7459;53.590;10.062;2022-08-11T18:06:36;26.70;85.80
14737;DHT22;7459;53.590;10.062;2022-08-11T18:09:08;26.70;86.10
14737;DHT22;7459;53.590;10.062;2022-08-11T18:12:01;26.70;86.40
14737;DHT22;7459;53.590;10.062;2022-08-11T18:14:50;26.60;86.50
14737;DHT22;7459;53.590;10.062;2022-08-11T18:17:35;26.60;86.60
14737;DHT22;7459;53.590;10.062;2022-08-11T18:20:20;26.50;86.90
14737;DHT22;7459;53.590;10.062;2022-08-11T18:23:10;26.50;87.10
14737;DHT22;7459;53.590;10.062;2022-08-11T18:26:00;26.50;87.30
14737;DHT22;7459;53.590;10.062;2022-08-11T18:28:48;26.40;87.50
14737;DHT22;7459;53.590;10.062;2022-08-11T18:31:37;26.40;88.00
14737;DHT22;7459;53.590;10.062;2022-08-11T18:34:29;26.30;88.50
14737;DHT22;7459;53.590;10.062;2022-08-11T18:37:18;26.30;89.20
14737;DHT22;7459;53.590;10.062;2022-08-11T18:40:16;26.20;89.40
14737;DHT22;7459;53.590;10.062;2022-08-11T18:43:09;26.10;89.70
14737;DHT22;7459;53.590;10.062;2022-08-11T18:46:04;26.10;90.10
14737;DHT22;7459;53.590;10.062;2022-08-11T18:48:52;26.00;90.30
14737;DHT22;7459;53.590;10.062;2022-08-11T18:51:41;25.90;90.50
14737;DHT22;7459;53.590;10.062;2022-08-11T18:54:29;25.90;90.90
14737;DHT22;7459;53.590;10.062;2022-08-11T18:57:14;25.80;91.00
14737;DHT22;7459;53.590;10.062;2022-08-11T19:00:00;25.70;91.10
14737;DHT22;7459;53.590;10.062;2022-08-11T19:02:46;25.70;91.20
14737;DHT22;7459;53.590;10.062;2022-08-11T19:05:32;25.60;91.40
14737;DHT22;7459;53.590;10.062;2022-08-11T19:08:20;25.50;91.40
14737;DHT22;7459;53.590;10.062;2022-08-11T19:11:07;25.50;91.10
14737;DHT22;7459;53.590;10.062;2022-08-11T19:13:53;25.50;91.00
14737;DHT22;7459;53.590;10.062;2022-08-11T19:16:40;25.40;90.80
14737;DHT22;7459;53.590;10.062;2022-08-11T19:19:27;25.30;90.80
14737;DHT22;7459;53.590;10.062;2022-08-11T19:22:12;25.30;90.80
14737;DHT22;7459;53.590;10.062;2022-08-11T19:24:57;25.30;90.70
14737;DHT22;7459;53.590;10.062;2022-08-11T19:27:42;25.20;90.80